Avalon Express — WDD7919 — position and weather

sailwx.info

Track history (hours):
 
Tides and Currents Weather Stations Pressure Air Temp Water Temp Dewpoint Dewpoint Depression Visibility Wind Speed Wind Dir Waves Ship Positions

Avalon Express

Owner: RGWT INC, San Pedro, CA. More information available from US FCC via Universal Licensing System and Coast Guard Vessel Documentation Center.

Last reported at 2016-Feb-13 14:33 UTC. Time now 2016-Feb-13 15:14 UTC.
Position N 33°45' W 118°16'.

Type: High speed craft. MMSI: 367192940.

Date/timePositionNaut miles runAvg speedWind from/ knotsBaromVisibWave heightAir tempDewpointWater temp
2016-Feb-13 14:33N 33°45' W 118°16'0 0.0
2016-Feb-13 04:33N 33°45' W 118°16'6 6.0
2016-Feb-13 03:34N 33°39' W 118°15'1918.8
2016-Feb-13 02:33N 33°21' W 118°19'10 9.0
2016-Feb-13 01:25N 33°27' W 118°29'2022.6
2016-Feb-13 00:33N 33°43' W 118°16'1 1.4
2016-Feb-12 23:31N 33°45' W 118°16'0 0.0
2016-Feb-12 22:33N 33°45' W 118°16'0 0.0
2016-Feb-12 21:33N 33°45' W 118°16'0 0.0
2016-Feb-12 20:33N 33°45' W 118°16'1 0.7
2016-Feb-12 19:33N 33°44' W 118°17'2322.9
2016-Feb-12 18:33N 33°22' W 118°19'1413.8
2016-Feb-12 17:34N 33°35' W 118°17'10 9.5
2016-Feb-12 16:33N 33°45' W 118°16'0 0.0
2016-Feb-12 15:33N 33°45' W 118°16'0 0.0
2016-Feb-12 14:33N 33°45' W 118°16'0 0.0
2016-Feb-11 21:33N 33°45' W 118°16'0 0.0
2016-Feb-11 20:33N 33°45' W 118°16'0 0.0
2016-Feb-11 19:33N 33°45' W 118°16'0 0.0
2016-Feb-11 18:33N 33°45' W 118°16'0 0.0
2016-Feb-11 17:33N 33°45' W 118°16'4 0.3
2016-Feb-11 02:03N 33°41' W 118°15'1326.3
2016-Feb-11 01:33N 33°28' W 118°18'10 4.7
2016-Feb-10 23:27N 33°38' W 118°19'7 6.6
2016-Feb-10 22:20N 33°45' W 118°16'0 0.0
2016-Feb-10 21:33N 33°45' W 118°16'1 0.8
2016-Feb-10 20:28N 33°44' W 118°16'2311.8
2016-Feb-10 18:33N 33°21' W 118°19'1515.0
2016-Feb-10 17:34N 33°36' W 118°16'9 8.8
2016-Feb-10 16:32N 33°45' W 118°16'0 0.0
2016-Feb-10 15:33N 33°45' W 118°16'0 0.0
2016-Feb-10 14:32N 33°45' W 118°16'0 0.0
2016-Feb-10 13:33N 33°45' W 118°16'0 0.0
2016-Feb-09 19:16N 33°45' W 118°16'0 0.0
2016-Feb-09 18:24N 33°45' W 118°16'0 0.0
2016-Feb-09 17:26N 33°45' W 118°16'0 0.0
2016-Feb-09 16:21N 33°45' W 118°16'0 0.0
2016-Feb-09 03:33N 33°45' W 118°16'0 0.0
2016-Feb-09 02:33N 33°45' W 118°16'0 0.0
2016-Feb-08 16:33N 33°45' W 118°16'0 0.0
2016-Feb-08 15:33N 33°45' W 118°16'0 0.0
2016-Feb-08 14:33N 33°45' W 118°16'0 0.0
2016-Feb-08 13:33N 33°45' W 118°16'0 0.0
2016-Feb-08 03:33N 33°45' W 118°16'0 0.0
2016-Feb-08 02:33N 33°45' W 118°16'2019.7
2016-Feb-08 01:33N 33°25' W 118°18'20 6.1
2016-Feb-07 22:18N 33°45' W 118°16'0 0.0
2016-Feb-07 21:32N 33°45' W 118°16'0 0.4
2016-Feb-07 20:32N 33°44' W 118°17'2412.0
2016-Feb-07 18:33N 33°21' W 118°19'1717.2
2016-Feb-07 17:33N 33°38' W 118°17'  
2016-Feb-03 21:18N 33°45' W 118°16'3 0.9
2016-Feb-03 17:20N 33°42' W 118°15'3 4.5
2016-Feb-03 16:33N 33°45' W 118°16'  
Track history (hours):
 
Tides and Currents Weather Stations Pressure Air Temp Water Temp Dewpoint Dewpoint Depression Visibility Wind Speed Wind Dir Waves Ship Positions

Avalon Express

Owner: RGWT INC, San Pedro, CA. More information available from US FCC via Universal Licensing System and Coast Guard Vessel Documentation Center.

Last reported at 2016-Feb-13 14:33 UTC. Time now 2016-Feb-13 15:14 UTC.
Position N 33°45' W 118°16'.

Type: High speed craft. MMSI: 367192940.

Date/timePositionNaut miles runAvg speedWind from/ knotsBaromVisibWave heightAir tempDewpointWater temp
2016-Feb-13 14:33N 33°45' W 118°16'0 0.0
2016-Feb-13 04:33N 33°45' W 118°16'6 6.0
2016-Feb-13 03:34N 33°39' W 118°15'1918.8
2016-Feb-13 02:33N 33°21' W 118°19'10 9.0
2016-Feb-13 01:25N 33°27' W 118°29'2022.6
2016-Feb-13 00:33N 33°43' W 118°16'1 1.4
2016-Feb-12 23:31N 33°45' W 118°16'0 0.0
2016-Feb-12 22:33N 33°45' W 118°16'0 0.0
2016-Feb-12 21:33N 33°45' W 118°16'0 0.0
2016-Feb-12 20:33N 33°45' W 118°16'1 0.7
2016-Feb-12 19:33N 33°44' W 118°17'2322.9
2016-Feb-12 18:33N 33°22' W 118°19'1413.8
2016-Feb-12 17:34N 33°35' W 118°17'10 9.5
2016-Feb-12 16:33N 33°45' W 118°16'0 0.0
2016-Feb-12 15:33N 33°45' W 118°16'0 0.0
2016-Feb-12 14:33N 33°45' W 118°16'0 0.0
2016-Feb-11 21:33N 33°45' W 118°16'0 0.0
2016-Feb-11 20:33N 33°45' W 118°16'0 0.0
2016-Feb-11 19:33N 33°45' W 118°16'0 0.0
2016-Feb-11 18:33N 33°45' W 118°16'0 0.0
2016-Feb-11 17:33N 33°45' W 118°16'4 0.3
2016-Feb-11 02:03N 33°41' W 118°15'1326.3
2016-Feb-11 01:33N 33°28' W 118°18'10 4.7
2016-Feb-10 23:27N 33°38' W 118°19'7 6.6
2016-Feb-10 22:20N 33°45' W 118°16'0 0.0
2016-Feb-10 21:33N 33°45' W 118°16'1 0.8
2016-Feb-10 20:28N 33°44' W 118°16'2311.8
2016-Feb-10 18:33N 33°21' W 118°19'1515.0
2016-Feb-10 17:34N 33°36' W 118°16'9 8.8
2016-Feb-10 16:32N 33°45' W 118°16'0 0.0
2016-Feb-10 15:33N 33°45' W 118°16'0 0.0
2016-Feb-10 14:32N 33°45' W 118°16'0 0.0
2016-Feb-10 13:33N 33°45' W 118°16'0 0.0
2016-Feb-09 19:16N 33°45' W 118°16'0 0.0
2016-Feb-09 18:24N 33°45' W 118°16'0 0.0
2016-Feb-09 17:26N 33°45' W 118°16'0 0.0
2016-Feb-09 16:21N 33°45' W 118°16'0 0.0
2016-Feb-09 03:33N 33°45' W 118°16'0 0.0
2016-Feb-09 02:33N 33°45' W 118°16'0 0.0
2016-Feb-08 16:33N 33°45' W 118°16'0 0.0
2016-Feb-08 15:33N 33°45' W 118°16'0 0.0
2016-Feb-08 14:33N 33°45' W 118°16'0 0.0
2016-Feb-08 13:33N 33°45' W 118°16'0 0.0
2016-Feb-08 03:33N 33°45' W 118°16'0 0.0
2016-Feb-08 02:33N 33°45' W 118°16'2019.7
2016-Feb-08 01:33N 33°25' W 118°18'20 6.1
2016-Feb-07 22:18N 33°45' W 118°16'0 0.0
2016-Feb-07 21:32N 33°45' W 118°16'0 0.4
2016-Feb-07 20:32N 33°44' W 118°17'2412.0
2016-Feb-07 18:33N 33°21' W 118°19'1717.2
2016-Feb-07 17:33N 33°38' W 118°17'  
2016-Feb-03 21:18N 33°45' W 118°16'3 0.9
2016-Feb-03 17:20N 33°42' W 118°15'3 4.5
2016-Feb-03 16:33N 33°45' W 118°16'  

Dump ship's entire track history